sensor_id;sensor_type;location;lat;lon;timestamp;P1;durP1;ratioP1;P2;durP2;ratioP2
5869;SDS011;2961;47.702;9.410;2024-03-08T00:00:09;43.80;;;21.47;;
5869;SDS011;2961;47.702;9.410;2024-03-08T00:02:37;37.40;;;20.43;;
5869;SDS011;2961;47.702;9.410;2024-03-08T00:05:04;40.00;;;19.87;;
5869;SDS011;2961;47.702;9.410;2024-03-08T00:07:33;39.80;;;21.83;;
5869;SDS011;2961;47.702;9.410;2024-03-08T00:10:01;36.23;;;20.40;;
5869;SDS011;2961;47.702;9.410;2024-03-08T00:12:29;36.70;;;20.10;;
5869;SDS011;2961;47.702;9.410;2024-03-08T00:14:56;36.83;;;19.77;;
5869;SDS011;2961;47.702;9.410;2024-03-08T00:17:23;37.00;;;20.03;;
5869;SDS011;2961;47.702;9.410;2024-03-08T00:19:52;35.27;;;18.90;;
5869;SDS011;2961;47.702;9.410;2024-03-08T00:22:18;36.57;;;20.57;;
5869;SDS011;2961;47.702;9.410;2024-03-08T00:24:47;40.83;;;20.57;;
5869;SDS011;2961;47.702;9.410;2024-03-08T00:27:15;39.20;;;20.33;;
5869;SDS011;2961;47.702;9.410;2024-03-08T00:29:43;31.83;;;18.13;;
5869;SDS011;2961;47.702;9.410;2024-03-08T00:32:10;39.17;;;20.30;;
5869;SDS011;2961;47.702;9.410;2024-03-08T00:34:37;38.60;;;19.87;;
5869;SDS011;2961;47.702;9.410;2024-03-08T00:37:04;33.53;;;17.80;;
5869;SDS011;2961;47.702;9.410;2024-03-08T00:39:31;38.97;;;20.07;;
5869;SDS011;2961;47.702;9.410;2024-03-08T00:41:58;42.33;;;19.10;;
5869;SDS011;2961;47.702;9.410;2024-03-08T00:44:25;35.60;;;20.00;;
5869;SDS011;2961;47.702;9.410;2024-03-08T00:46:53;35.93;;;18.33;;
5869;SDS011;2961;47.702;9.410;2024-03-08T00:49:20;37.47;;;19.97;;
5869;SDS011;2961;47.702;9.410;2024-03-08T00:51:47;38.40;;;19.33;;
5869;SDS011;2961;47.702;9.410;2024-03-08T00:54:14;39.23;;;19.17;;
5869;SDS011;2961;47.702;9.410;2024-03-08T00:56:41;34.20;;;18.90;;
5869;SDS011;2961;47.702;9.410;2024-03-08T00:59:08;36.33;;;19.87;;
5869;SDS011;2961;47.702;9.410;2024-03-08T01:01:35;35.63;;;18.97;;
5869;SDS011;2961;47.702;9.410;2024-03-08T01:04:03;38.37;;;20.30;;
5869;SDS011;2961;47.702;9.410;2024-03-08T01:06:30;38.30;;;18.23;;
5869;SDS011;2961;47.702;9.410;2024-03-08T01:08:58;35.30;;;18.93;;
5869;SDS011;2961;47.702;9.410;2024-03-08T01:11:25;44.13;;;20.33;;
5869;SDS011;2961;47.702;9.410;2024-03-08T01:13:53;36.40;;;19.60;;
5869;SDS011;2961;47.702;9.410;2024-03-08T01:16:20;40.93;;;21.23;;
5869;SDS011;2961;47.702;9.410;2024-03-08T01:18:46;40.80;;;18.23;;
5869;SDS011;2961;47.702;9.410;2024-03-08T01:21:15;40.93;;;20.87;;
5869;SDS011;2961;47.702;9.410;2024-03-08T01:23:42;39.60;;;20.50;;
5869;SDS011;2961;47.702;9.410;2024-03-08T01:26:08;48.20;;;22.20;;
5869;SDS011;2961;47.702;9.410;2024-03-08T01:28:36;37.73;;;20.60;;
5869;SDS011;2961;47.702;9.410;2024-03-08T01:31:03;38.53;;;18.90;;
5869;SDS011;2961;47.702;9.410;2024-03-08T01:33:31;32.47;;;18.63;;
5869;SDS011;2961;47.702;9.410;2024-03-08T01:35:58;39.27;;;19.60;;
5869;SDS011;2961;47.702;9.410;2024-03-08T01:38:26;32.67;;;17.67;;
5869;SDS011;2961;47.702;9.410;2024-03-08T01:40:52;38.53;;;20.43;;
5869;SDS011;2961;47.702;9.410;2024-03-08T01:43:19;40.77;;;20.50;;
5869;SDS011;2961;47.702;9.410;2024-03-08T01:45:48;40.17;;;20.70;;
5869;SDS011;2961;47.702;9.410;2024-03-08T01:48:15;41.97;;;19.80;;
5869;SDS011;2961;47.702;9.410;2024-03-08T01:50:44;42.07;;;20.47;;
5869;SDS011;2961;47.702;9.410;2024-03-08T01:53:11;39.47;;;18.47;;
5869;SDS011;2961;47.702;9.410;2024-03-08T01:55:41;38.67;;;20.37;;
5869;SDS011;2961;47.702;9.410;2024-03-08T01:58:11;38.67;;;19.47;;
5869;SDS011;2961;47.702;9.410;2024-03-08T02:00:40;41.10;;;20.20;;
5869;SDS011;2961;47.702;9.410;2024-03-08T02:03:09;34.63;;;20.77;;
5869;SDS011;2961;47.702;9.410;2024-03-08T02:05:37;35.70;;;19.07;;
5869;SDS011;2961;47.702;9.410;2024-03-08T02:08:05;34.83;;;19.50;;
5869;SDS011;2961;47.702;9.410;2024-03-08T02:10:33;40.93;;;20.20;;
5869;SDS011;2961;47.702;9.410;2024-03-08T02:13:01;33.50;;;17.43;;
5869;SDS011;2961;47.702;9.410;2024-03-08T02:18:17;37.40;;;19.57;;
5869;SDS011;2961;47.702;9.410;2024-03-08T02:20:46;39.13;;;19.67;;
5869;SDS011;2961;47.702;9.410;2024-03-08T02:23:13;41.50;;;20.43;;
5869;SDS011;2961;47.702;9.410;2024-03-08T02:25:40;39.60;;;20.30;;
5869;SDS011;2961;47.702;9.410;2024-03-08T02:28:08;46.13;;;20.77;;
5869;SDS011;2961;47.702;9.410;2024-03-08T02:30:36;43.80;;;21.40;;
5869;SDS011;2961;47.702;9.410;2024-03-08T02:33:03;39.93;;;19.40;;
5869;SDS011;2961;47.702;9.410;2024-03-08T02:35:30;39.43;;;19.03;;
5869;SDS011;2961;47.702;9.410;2024-03-08T02:37:58;40.30;;;18.40;;
5869;SDS011;2961;47.702;9.410;2024-03-08T02:40:25;39.07;;;19.93;;
5869;SDS011;2961;47.702;9.410;2024-03-08T02:42:52;40.53;;;17.57;;
5869;SDS011;2961;47.702;9.410;2024-03-08T02:45:19;37.97;;;19.67;;
5869;SDS011;2961;47.702;9.410;2024-03-08T02:47:46;32.73;;;16.93;;
5869;SDS011;2961;47.702;9.410;2024-03-08T02:50:14;36.33;;;19.87;;
5869;SDS011;2961;47.702;9.410;2024-03-08T02:52:41;34.00;;;18.60;;
5869;SDS011;2961;47.702;9.410;2024-03-08T02:55:10;34.00;;;18.90;;
5869;SDS011;2961;47.702;9.410;2024-03-08T02:57:40;33.03;;;18.80;;
5869;SDS011;2961;47.702;9.410;2024-03-08T03:00:07;39.80;;;20.23;;
5869;SDS011;2961;47.702;9.410;2024-03-08T03:02:35;35.70;;;17.60;;
5869;SDS011;2961;47.702;9.410;2024-03-08T03:05:02;35.87;;;17.70;;
5869;SDS011;2961;47.702;9.410;2024-03-08T03:07:31;38.57;;;18.70;;
5869;SDS011;2961;47.702;9.410;2024-03-08T03:09:58;33.30;;;18.50;;
5869;SDS011;2961;47.702;9.410;2024-03-08T03:12:26;32.97;;;18.17;;
5869;SDS011;2961;47.702;9.410;2024-03-08T03:14:53;38.37;;;19.60;;
5869;SDS011;2961;47.702;9.410;2024-03-08T03:17:21;32.70;;;18.10;;
5869;SDS011;2961;47.702;9.410;2024-03-08T03:19:48;35.77;;;19.10;;
5869;SDS011;2961;47.702;9.410;2024-03-08T03:22:15;36.67;;;20.33;;
5869;SDS011;2961;47.702;9.410;2024-03-08T03:24:41;37.60;;;19.70;;
5869;SDS011;2961;47.702;9.410;2024-03-08T03:27:08;38.10;;;19.23;;
5869;SDS011;2961;47.702;9.410;2024-03-08T03:29:38;32.13;;;18.30;;
5869;SDS011;2961;47.702;9.410;2024-03-08T03:32:07;39.97;;;20.37;;
5869;SDS011;2961;47.702;9.410;2024-03-08T03:34:34;36.53;;;19.07;;
5869;SDS011;2961;47.702;9.410;2024-03-08T03:37:02;37.30;;;20.70;;
5869;SDS011;2961;47.702;9.410;2024-03-08T03:39:29;41.00;;;20.70;;
5869;SDS011;2961;47.702;9.410;2024-03-08T03:41:56;43.03;;;19.60;;
5869;SDS011;2961;47.702;9.410;2024-03-08T03:44:23;34.70;;;19.70;;
5869;SDS011;2961;47.702;9.410;2024-03-08T03:46:51;38.20;;;20.00;;
5869;SDS011;2961;47.702;9.410;2024-03-08T03:49:18;37.83;;;21.10;;
5869;SDS011;2961;47.702;9.410;2024-03-08T03:51:45;41.93;;;20.10;;
5869;SDS011;2961;47.702;9.410;2024-03-08T03:54:12;39.30;;;19.67;;
5869;SDS011;2961;47.702;9.410;2024-03-08T03:56:39;40.20;;;20.47;;
5869;SDS011;2961;47.702;9.410;2024-03-08T03:59:06;37.17;;;20.40;;
5869;SDS011;2961;47.702;9.410;2024-03-08T04:01:33;41.00;;;19.00;;
5869;SDS011;2961;47.702;9.410;2024-03-08T04:04:01;37.23;;;20.13;;
5869;SDS011;2961;47.702;9.410;2024-03-08T04:06:28;40.77;;;20.57;;
5869;SDS011;2961;47.702;9.410;2024-03-08T04:08:55;39.20;;;19.50;;
5869;SDS011;2961;47.702;9.410;2024-03-08T04:11:22;44.67;;;22.20;;
5869;SDS011;2961;47.702;9.410;2024-03-08T04:13:48;43.00;;;20.17;;
5869;SDS011;2961;47.702;9.410;2024-03-08T04:16:15;40.20;;;21.57;;
5869;SDS011;2961;47.702;9.410;2024-03-08T04:18:44;42.33;;;20.93;;
5869;SDS011;2961;47.702;9.410;2024-03-08T04:21:12;46.00;;;21.90;;
5869;SDS011;2961;47.702;9.410;2024-03-08T04:23:38;42.13;;;20.73;;
5869;SDS011;2961;47.702;9.410;2024-03-08T04:26:05;39.07;;;18.87;;
5869;SDS011;2961;47.702;9.410;2024-03-08T04:28:34;43.93;;;19.90;;
5869;SDS011;2961;47.702;9.410;2024-03-08T04:31:02;51.50;;;21.10;;
5869;SDS011;2961;47.702;9.410;2024-03-08T04:33:29;48.87;;;21.40;;
5869;SDS011;2961;47.702;9.410;2024-03-08T04:35:56;40.07;;;21.57;;
5869;SDS011;2961;47.702;9.410;2024-03-08T04:38:24;42.20;;;21.07;;
5869;SDS011;2961;47.702;9.410;2024-03-08T04:40:51;48.83;;;22.77;;
5869;SDS011;2961;47.702;9.410;2024-03-08T04:43:19;49.83;;;23.17;;
5869;SDS011;2961;47.702;9.410;2024-03-08T04:45:46;38.47;;;20.53;;
5869;SDS011;2961;47.702;9.410;2024-03-08T04:48:13;47.77;;;21.20;;
5869;SDS011;2961;47.702;9.410;2024-03-08T04:50:40;44.83;;;23.00;;
5869;SDS011;2961;47.702;9.410;2024-03-08T04:53:07;43.90;;;20.57;;
5869;SDS011;2961;47.702;9.410;2024-03-08T04:55:35;48.40;;;22.83;;
5869;SDS011;2961;47.702;9.410;2024-03-08T04:58:02;44.83;;;22.50;;
5869;SDS011;2961;47.702;9.410;2024-03-08T05:00:30;44.07;;;21.63;;
5869;SDS011;2961;47.702;9.410;2024-03-08T05:02:57;46.13;;;21.50;;
5869;SDS011;2961;47.702;9.410;2024-03-08T05:05:24;47.60;;;22.20;;
5869;SDS011;2961;47.702;9.410;2024-03-08T05:07:53;48.30;;;24.63;;
5869;SDS011;2961;47.702;9.410;2024-03-08T05:10:20;44.97;;;21.20;;
5869;SDS011;2961;47.702;9.410;2024-03-08T05:12:48;42.73;;;22.53;;
5869;SDS011;2961;47.702;9.410;2024-03-08T05:15:15;54.17;;;23.80;;
5869;SDS011;2961;47.702;9.410;2024-03-08T05:17:42;48.67;;;22.30;;
5869;SDS011;2961;47.702;9.410;2024-03-08T05:20:10;47.23;;;22.80;;
5869;SDS011;2961;47.702;9.410;2024-03-08T05:22:38;50.27;;;21.80;;
5869;SDS011;2961;47.702;9.410;2024-03-08T05:25:05;54.80;;;25.57;;
5869;SDS011;2961;47.702;9.410;2024-03-08T05:27:33;56.30;;;24.40;;
5869;SDS011;2961;47.702;9.410;2024-03-08T05:30:02;50.90;;;23.20;;
5869;SDS011;2961;47.702;9.410;2024-03-08T05:32:30;59.60;;;27.40;;
5869;SDS011;2961;47.702;9.410;2024-03-08T05:34:57;54.73;;;23.47;;
5869;SDS011;2961;47.702;9.410;2024-03-08T05:37:24;49.07;;;23.60;;
5869;SDS011;2961;47.702;9.410;2024-03-08T05:39:51;54.77;;;24.30;;
5869;SDS011;2961;47.702;9.410;2024-03-08T05:42:18;48.63;;;24.17;;
5869;SDS011;2961;47.702;9.410;2024-03-08T05:44:45;47.93;;;21.70;;
5869;SDS011;2961;47.702;9.410;2024-03-08T05:47:13;49.93;;;24.43;;
5869;SDS011;2961;47.702;9.410;2024-03-08T05:49:41;50.70;;;24.00;;
5869;SDS011;2961;47.702;9.410;2024-03-08T05:52:09;59.80;;;26.40;;
5869;SDS011;2961;47.702;9.410;2024-03-08T05:54:36;57.00;;;25.20;;
5869;SDS011;2961;47.702;9.410;2024-03-08T05:57:03;51.53;;;22.90;;
5869;SDS011;2961;47.702;9.410;2024-03-08T05:59:31;56.73;;;25.70;;
5869;SDS011;2961;47.702;9.410;2024-03-08T06:01:58;54.70;;;25.27;;
5869;SDS011;2961;47.702;9.410;2024-03-08T06:04:26;48.93;;;23.67;;
5869;SDS011;2961;47.702;9.410;2024-03-08T06:06:54;48.03;;;23.53;;
5869;SDS011;2961;47.702;9.410;2024-03-08T06:09:23;54.00;;;26.20;;
5869;SDS011;2961;47.702;9.410;2024-03-08T06:11:50;56.27;;;26.27;;
5869;SDS011;2961;47.702;9.410;2024-03-08T06:14:17;60.73;;;25.60;;
5869;SDS011;2961;47.702;9.410;2024-03-08T06:16:44;53.77;;;25.57;;
5869;SDS011;2961;47.702;9.410;2024-03-08T06:19:10;60.27;;;25.37;;
5869;SDS011;2961;47.702;9.410;2024-03-08T06:21:39;65.07;;;26.60;;
5869;SDS011;2961;47.702;9.410;2024-03-08T06:24:06;57.83;;;25.27;;
5869;SDS011;2961;47.702;9.410;2024-03-08T06:26:33;61.53;;;25.20;;
5869;SDS011;2961;47.702;9.410;2024-03-08T06:29:01;61.55;;;31.50;;
5869;SDS011;2961;47.702;9.410;2024-03-08T06:31:27;56.17;;;26.90;;
5869;SDS011;2961;47.702;9.410;2024-03-08T06:33:54;58.37;;;27.80;;
5869;SDS011;2961;47.702;9.410;2024-03-08T06:36:21;55.80;;;25.63;;
5869;SDS011;2961;47.702;9.410;2024-03-08T06:38:49;53.13;;;24.63;;
5869;SDS011;2961;47.702;9.410;2024-03-08T06:41:16;50.03;;;23.60;;
5869;SDS011;2961;47.702;9.410;2024-03-08T06:43:44;53.33;;;24.97;;
5869;SDS011;2961;47.702;9.410;2024-03-08T06:46:11;59.33;;;23.93;;
5869;SDS011;2961;47.702;9.410;2024-03-08T06:48:38;52.80;;;23.10;;
5869;SDS011;2961;47.702;9.410;2024-03-08T06:51:05;54.40;;;21.40;;
5869;SDS011;2961;47.702;9.410;2024-03-08T06:53:32;49.40;;;22.30;;
5869;SDS011;2961;47.702;9.410;2024-03-08T06:56:01;43.60;;;19.80;;
5869;SDS011;2961;47.702;9.410;2024-03-08T06:58:28;50.37;;;24.07;;
5869;SDS011;2961;47.702;9.410;2024-03-08T07:00:55;49.77;;;23.37;;
5869;SDS011;2961;47.702;9.410;2024-03-08T07:03:23;49.10;;;22.30;;
5869;SDS011;2961;47.702;9.410;2024-03-08T07:05:51;42.20;;;23.03;;
5869;SDS011;2961;47.702;9.410;2024-03-08T07:08:18;44.30;;;21.50;;
5869;SDS011;2961;47.702;9.410;2024-03-08T07:10:47;44.97;;;22.70;;
5869;SDS011;2961;47.702;9.410;2024-03-08T07:13:15;48.17;;;22.80;;
5869;SDS011;2961;47.702;9.410;2024-03-08T07:15:43;51.08;;;25.80;;
5869;SDS011;2961;47.702;9.410;2024-03-08T07:18:10;47.50;;;24.20;;
5869;SDS011;2961;47.702;9.410;2024-03-08T07:20:39;40.80;;;21.47;;
5869;SDS011;2961;47.702;9.410;2024-03-08T07:23:06;41.87;;;19.97;;
5869;SDS011;2961;47.702;9.410;2024-03-08T07:25:35;43.90;;;21.67;;
5869;SDS011;2961;47.702;9.410;2024-03-08T07:28:04;44.90;;;20.97;;
5869;SDS011;2961;47.702;9.410;2024-03-08T07:30:33;42.63;;;20.70;;
5869;SDS011;2961;47.702;9.410;2024-03-08T07:33:25;42.97;;;24.80;;
5869;SDS011;2961;47.702;9.410;2024-03-08T07:35:52;39.10;;;21.57;;
5869;SDS011;2961;47.702;9.410;2024-03-08T07:38:19;38.30;;;19.13;;
5869;SDS011;2961;47.702;9.410;2024-03-08T07:40:46;38.67;;;20.27;;
5869;SDS011;2961;47.702;9.410;2024-03-08T07:43:13;41.37;;;19.07;;
5869;SDS011;2961;47.702;9.410;2024-03-08T07:45:41;42.37;;;19.20;;
5869;SDS011;2961;47.702;9.410;2024-03-08T07:48:08;43.83;;;20.73;;
5869;SDS011;2961;47.702;9.410;2024-03-08T07:50:36;41.10;;;19.60;;
5869;SDS011;2961;47.702;9.410;2024-03-08T07:53:04;37.20;;;19.67;;
5869;SDS011;2961;47.702;9.410;2024-03-08T07:55:31;42.50;;;20.50;;
5869;SDS011;2961;47.702;9.410;2024-03-08T07:57:58;40.10;;;19.27;;
5869;SDS011;2961;47.702;9.410;2024-03-08T08:00:25;38.53;;;18.90;;
5869;SDS011;2961;47.702;9.410;2024-03-08T08:02:54;39.33;;;18.90;;
5869;SDS011;2961;47.702;9.410;2024-03-08T08:05:21;37.27;;;18.50;;
5869;SDS011;2961;47.702;9.410;2024-03-08T08:07:47;35.60;;;17.17;;
5869;SDS011;2961;47.702;9.410;2024-03-08T08:10:14;31.80;;;16.13;;
5869;SDS011;2961;47.702;9.410;2024-03-08T08:12:43;36.07;;;18.00;;
5869;SDS011;2961;47.702;9.410;2024-03-08T08:15:11;37.60;;;16.73;;
5869;SDS011;2961;47.702;9.410;2024-03-08T08:17:40;33.10;;;17.80;;
5869;SDS011;2961;47.702;9.410;2024-03-08T08:20:09;29.83;;;15.17;;
5869;SDS011;2961;47.702;9.410;2024-03-08T08:22:37;38.23;;;18.63;;
5869;SDS011;2961;47.702;9.410;2024-03-08T08:25:05;36.63;;;18.00;;
5869;SDS011;2961;47.702;9.410;2024-03-08T08:27:31;35.63;;;16.43;;
5869;SDS011;2961;47.702;9.410;2024-03-08T08:29:59;37.67;;;17.37;;
5869;SDS011;2961;47.702;9.410;2024-03-08T08:32:25;32.70;;;16.90;;
5869;SDS011;2961;47.702;9.410;2024-03-08T08:34:52;32.67;;;17.47;;
5869;SDS011;2961;47.702;9.410;2024-03-08T08:37:21;39.97;;;20.27;;
5869;SDS011;2961;47.702;9.410;2024-03-08T08:39:48;39.43;;;19.43;;
5869;SDS011;2961;47.702;9.410;2024-03-08T08:42:16;35.53;;;18.57;;
5869;SDS011;2961;47.702;9.410;2024-03-08T08:44:43;40.13;;;18.43;;
5869;SDS011;2961;47.702;9.410;2024-03-08T08:47:09;44.07;;;20.50;;
5869;SDS011;2961;47.702;9.410;2024-03-08T08:49:36;34.63;;;18.40;;
5869;SDS011;2961;47.702;9.410;2024-03-08T08:52:03;33.27;;;18.77;;
5869;SDS011;2961;47.702;9.410;2024-03-08T08:54:32;35.27;;;18.23;;
5869;SDS011;2961;47.702;9.410;2024-03-08T08:56:58;37.83;;;18.93;;
5869;SDS011;2961;47.702;9.410;2024-03-08T08:59:25;37.97;;;16.77;;
5869;SDS011;2961;47.702;9.410;2024-03-08T09:01:52;32.53;;;16.40;;
5869;SDS011;2961;47.702;9.410;2024-03-08T09:04:19;34.17;;;16.90;;
5869;SDS011;2961;47.702;9.410;2024-03-08T09:06:48;32.63;;;16.73;;
5869;SDS011;2961;47.702;9.410;2024-03-08T09:09:14;36.13;;;17.30;;
5869;SDS011;2961;47.702;9.410;2024-03-08T09:11:43;31.70;;;17.27;;
5869;SDS011;2961;47.702;9.410;2024-03-08T09:14:11;33.97;;;17.50;;
5869;SDS011;2961;47.702;9.410;2024-03-08T09:16:38;36.50;;;18.07;;
5869;SDS011;2961;47.702;9.410;2024-03-08T09:19:04;38.47;;;20.10;;
5869;SDS011;2961;47.702;9.410;2024-03-08T09:21:32;37.67;;;19.43;;
5869;SDS011;2961;47.702;9.410;2024-03-08T09:23:59;37.70;;;18.20;;
5869;SDS011;2961;47.702;9.410;2024-03-08T09:26:26;37.53;;;18.77;;
5869;SDS011;2961;47.702;9.410;2024-03-08T09:28:54;39.27;;;19.40;;
5869;SDS011;2961;47.702;9.410;2024-03-08T09:31:21;35.50;;;18.40;;
5869;SDS011;2961;47.702;9.410;2024-03-08T09:33:48;32.93;;;17.57;;
5869;SDS011;2961;47.702;9.410;2024-03-08T09:36:15;39.53;;;18.90;;
5869;SDS011;2961;47.702;9.410;2024-03-08T09:38:42;30.43;;;16.60;;
5869;SDS011;2961;47.702;9.410;2024-03-08T09:41:09;34.00;;;17.63;;
5869;SDS011;2961;47.702;9.410;2024-03-08T09:43:37;37.97;;;18.63;;
5869;SDS011;2961;47.702;9.410;2024-03-08T09:46:06;37.40;;;17.87;;
5869;SDS011;2961;47.702;9.410;2024-03-08T09:48:35;36.10;;;18.33;;
5869;SDS011;2961;47.702;9.410;2024-03-08T09:51:02;39.60;;;19.00;;
5869;SDS011;2961;47.702;9.410;2024-03-08T09:53:30;41.27;;;19.10;;
5869;SDS011;2961;47.702;9.410;2024-03-08T09:55:56;43.30;;;19.97;;
5869;SDS011;2961;47.702;9.410;2024-03-08T09:58:24;37.53;;;18.97;;
5869;SDS011;2961;47.702;9.410;2024-03-08T10:01:18;35.40;;;17.37;;
5869;SDS011;2961;47.702;9.410;2024-03-08T10:03:46;28.93;;;15.87;;
5869;SDS011;2961;47.702;9.410;2024-03-08T10:06:14;36.80;;;18.50;;
5869;SDS011;2961;47.702;9.410;2024-03-08T10:08:41;40.80;;;18.27;;
5869;SDS011;2961;47.702;9.410;2024-03-08T10:11:07;37.10;;;20.20;;
5869;SDS011;2961;47.702;9.410;2024-03-08T10:13:36;40.73;;;19.60;;
5869;SDS011;2961;47.702;9.410;2024-03-08T10:16:05;36.60;;;18.33;;
5869;SDS011;2961;47.702;9.410;2024-03-08T10:18:34;37.00;;;19.33;;
5869;SDS011;2961;47.702;9.410;2024-03-08T10:21:04;33.60;;;17.53;;
5869;SDS011;2961;47.702;9.410;2024-03-08T10:23:32;38.93;;;19.07;;
5869;SDS011;2961;47.702;9.410;2024-03-08T10:26:09;37.77;;;19.30;;
5869;SDS011;2961;47.702;9.410;2024-03-08T10:28:38;39.75;;;21.50;;
5869;SDS011;2961;47.702;9.410;2024-03-08T10:31:04;39.50;;;19.40;;
5869;SDS011;2961;47.702;9.410;2024-03-08T10:33:33;41.47;;;20.63;;
5869;SDS011;2961;47.702;9.410;2024-03-08T10:36:00;39.30;;;20.47;;
5869;SDS011;2961;47.702;9.410;2024-03-08T10:38:28;41.20;;;20.47;;
5869;SDS011;2961;47.702;9.410;2024-03-08T10:40:59;33.07;;;17.80;;
5869;SDS011;2961;47.702;9.410;2024-03-08T10:43:27;41.00;;;20.33;;
5869;SDS011;2961;47.702;9.410;2024-03-08T10:46:07;37.47;;;18.73;;
5869;SDS011;2961;47.702;9.410;2024-03-08T10:48:49;32.50;;;18.70;;
5869;SDS011;2961;47.702;9.410;2024-03-08T10:51:18;37.33;;;18.60;;
5869;SDS011;2961;47.702;9.410;2024-03-08T10:53:46;36.20;;;17.30;;
5869;SDS011;2961;47.702;9.410;2024-03-08T10:56:16;33.13;;;17.10;;
5869;SDS011;2961;47.702;9.410;2024-03-08T10:58:43;31.90;;;18.30;;
5869;SDS011;2961;47.702;9.410;2024-03-08T11:01:10;31.27;;;18.20;;
5869;SDS011;2961;47.702;9.410;2024-03-08T11:03:43;33.57;;;17.20;;
5869;SDS011;2961;47.702;9.410;2024-03-08T11:06:14;33.03;;;17.13;;
5869;SDS011;2961;47.702;9.410;2024-03-08T11:08:43;32.30;;;16.77;;
5869;SDS011;2961;47.702;9.410;2024-03-08T11:11:23;37.47;;;17.57;;
5869;SDS011;2961;47.702;9.410;2024-03-08T11:13:52;36.73;;;18.33;;
5869;SDS011;2961;47.702;9.410;2024-03-08T11:19:07;31.10;;;16.90;;
5869;SDS011;2961;47.702;9.410;2024-03-08T11:21:58;35.37;;;17.93;;
5869;SDS011;2961;47.702;9.410;2024-03-08T11:24:26;30.90;;;15.40;;
5869;SDS011;2961;47.702;9.410;2024-03-08T11:26:54;38.60;;;17.97;;
5869;SDS011;2961;47.702;9.410;2024-03-08T11:29:34;28.30;;;14.63;;
5869;SDS011;2961;47.702;9.410;2024-03-08T11:32:05;34.63;;;17.33;;
5869;SDS011;2961;47.702;9.410;2024-03-08T11:34:34;34.07;;;16.77;;
5869;SDS011;2961;47.702;9.410;2024-03-08T11:37:04;27.03;;;15.80;;
5869;SDS011;2961;47.702;9.410;2024-03-08T11:39:34;30.27;;;16.97;;
5869;SDS011;2961;47.702;9.410;2024-03-08T11:42:03;28.77;;;15.97;;
5869;SDS011;2961;47.702;9.410;2024-03-08T11:44:30;31.00;;;16.73;;
5869;SDS011;2961;47.702;9.410;2024-03-08T11:46:57;30.60;;;14.77;;
5869;SDS011;2961;47.702;9.410;2024-03-08T11:49:24;29.90;;;16.53;;
5869;SDS011;2961;47.702;9.410;2024-03-08T11:51:51;31.73;;;14.60;;
5869;SDS011;2961;47.702;9.410;2024-03-08T11:54:20;24.53;;;14.30;;
5869;SDS011;2961;47.702;9.410;2024-03-08T11:56:48;27.97;;;15.30;;
5869;SDS011;2961;47.702;9.410;2024-03-08T11:59:18;26.87;;;14.70;;
5869;SDS011;2961;47.702;9.410;2024-03-08T12:01:56;31.13;;;16.07;;
5869;SDS011;2961;47.702;9.410;2024-03-08T12:04:27;28.70;;;15.73;;
5869;SDS011;2961;47.702;9.410;2024-03-08T12:06:54;25.90;;;14.20;;
5869;SDS011;2961;47.702;9.410;2024-03-08T12:09:22;28.83;;;15.40;;
5869;SDS011;2961;47.702;9.410;2024-03-08T12:11:49;25.53;;;14.20;;
5869;SDS011;2961;47.702;9.410;2024-03-08T12:14:16;25.20;;;15.43;;
5869;SDS011;2961;47.702;9.410;2024-03-08T12:16:43;25.87;;;14.57;;
5869;SDS011;2961;47.702;9.410;2024-03-08T12:19:10;27.80;;;14.27;;
5869;SDS011;2961;47.702;9.410;2024-03-08T12:21:37;33.17;;;15.57;;
5869;SDS011;2961;47.702;9.410;2024-03-08T12:24:13;28.70;;;14.33;;
5869;SDS011;2961;47.702;9.410;2024-03-08T12:26:43;21.80;;;13.27;;
5869;SDS011;2961;47.702;9.410;2024-03-08T12:29:16;19.67;;;12.60;;
5869;SDS011;2961;47.702;9.410;2024-03-08T12:31:47;20.70;;;13.17;;
5869;SDS011;2961;47.702;9.410;2024-03-08T12:34:16;29.87;;;15.53;;
5869;SDS011;2961;47.702;9.410;2024-03-08T12:36:44;23.80;;;14.00;;
5869;SDS011;2961;47.702;9.410;2024-03-08T12:39:13;22.10;;;13.70;;
5869;SDS011;2961;47.702;9.410;2024-03-08T12:41:44;20.90;;;13.03;;
5869;SDS011;2961;47.702;9.410;2024-03-08T12:44:12;18.20;;;11.93;;
5869;SDS011;2961;47.702;9.410;2024-03-08T12:46:39;25.50;;;13.47;;
5869;SDS011;2961;47.702;9.410;2024-03-08T12:49:07;20.57;;;12.30;;
5869;SDS011;2961;47.702;9.410;2024-03-08T12:51:34;19.43;;;12.43;;
5869;SDS011;2961;47.702;9.410;2024-03-08T12:54:02;24.63;;;13.80;;
5869;SDS011;2961;47.702;9.410;2024-03-08T12:56:29;24.10;;;14.90;;
5869;SDS011;2961;47.702;9.410;2024-03-08T12:58:59;19.57;;;11.83;;
5869;SDS011;2961;47.702;9.410;2024-03-08T13:01:26;21.87;;;12.10;;
5869;SDS011;2961;47.702;9.410;2024-03-08T13:03:53;21.60;;;13.67;;
5869;SDS011;2961;47.702;9.410;2024-03-08T13:06:21;22.23;;;13.30;;
5869;SDS011;2961;47.702;9.410;2024-03-08T13:08:49;18.57;;;12.10;;
5869;SDS011;2961;47.702;9.410;2024-03-08T13:11:16;19.83;;;13.17;;
5869;SDS011;2961;47.702;9.410;2024-03-08T13:13:44;24.57;;;12.17;;
5869;SDS011;2961;47.702;9.410;2024-03-08T13:16:12;22.43;;;12.60;;
5869;SDS011;2961;47.702;9.410;2024-03-08T13:18:40;20.42;;;12.98;;
5869;SDS011;2961;47.702;9.410;2024-03-08T13:21:08;24.67;;;15.27;;
5869;SDS011;2961;47.702;9.410;2024-03-08T13:23:36;24.50;;;14.82;;
5869;SDS011;2961;47.702;9.410;2024-03-08T13:26:05;27.30;;;13.80;;
5869;SDS011;2961;47.702;9.410;2024-03-08T13:28:32;21.93;;;12.53;;
5869;SDS011;2961;47.702;9.410;2024-03-08T13:31:02;23.42;;;15.38;;
5869;SDS011;2961;47.702;9.410;2024-03-08T13:33:32;26.47;;;14.30;;
5869;SDS011;2961;47.702;9.410;2024-03-08T13:36:01;23.77;;;13.43;;
5869;SDS011;2961;47.702;9.410;2024-03-08T13:38:29;20.43;;;13.00;;
5869;SDS011;2961;47.702;9.410;2024-03-08T13:40:57;22.93;;;13.33;;
5869;SDS011;2961;47.702;9.410;2024-03-08T13:43:24;23.30;;;13.07;;
5869;SDS011;2961;47.702;9.410;2024-03-08T13:45:53;18.53;;;12.93;;
5869;SDS011;2961;47.702;9.410;2024-03-08T13:48:20;19.20;;;12.23;;
5869;SDS011;2961;47.702;9.410;2024-03-08T13:50:49;24.10;;;13.40;;
5869;SDS011;2961;47.702;9.410;2024-03-08T13:53:16;20.17;;;12.90;;
5869;SDS011;2961;47.702;9.410;2024-03-08T13:55:43;21.80;;;13.17;;
5869;SDS011;2961;47.702;9.410;2024-03-08T13:58:10;19.50;;;12.50;;
5869;SDS011;2961;47.702;9.410;2024-03-08T14:00:39;24.93;;;14.00;;
5869;SDS011;2961;47.702;9.410;2024-03-08T14:03:08;24.53;;;14.03;;
5869;SDS011;2961;47.702;9.410;2024-03-08T14:05:38;24.47;;;14.30;;
5869;SDS011;2961;47.702;9.410;2024-03-08T14:08:08;27.60;;;13.23;;
5869;SDS011;2961;47.702;9.410;2024-03-08T14:10:37;21.13;;;13.40;;
5869;SDS011;2961;47.702;9.410;2024-03-08T14:13:04;22.73;;;13.83;;
5869;SDS011;2961;47.702;9.410;2024-03-08T14:15:32;26.80;;;15.77;;
5869;SDS011;2961;47.702;9.410;2024-03-08T14:17:59;23.63;;;14.53;;
5869;SDS011;2961;47.702;9.410;2024-03-08T14:20:27;23.97;;;14.57;;
5869;SDS011;2961;47.702;9.410;2024-03-08T14:22:54;22.50;;;14.73;;
5869;SDS011;2961;47.702;9.410;2024-03-08T14:25:23;20.10;;;13.60;;
5869;SDS011;2961;47.702;9.410;2024-03-08T14:27:50;24.30;;;13.50;;
5869;SDS011;2961;47.702;9.410;2024-03-08T14:30:18;26.40;;;14.70;;
5869;SDS011;2961;47.702;9.410;2024-03-08T14:32:57;21.93;;;13.93;;
5869;SDS011;2961;47.702;9.410;2024-03-08T14:35:24;23.87;;;14.23;;
5869;SDS011;2961;47.702;9.410;2024-03-08T14:37:51;21.47;;;14.40;;
5869;SDS011;2961;47.702;9.410;2024-03-08T14:40:18;26.13;;;14.60;;
5869;SDS011;2961;47.702;9.410;2024-03-08T14:42:48;21.53;;;13.60;;
5869;SDS011;2961;47.702;9.410;2024-03-08T14:45:15;25.00;;;14.03;;
5869;SDS011;2961;47.702;9.410;2024-03-08T14:47:44;23.30;;;14.60;;
5869;SDS011;2961;47.702;9.410;2024-03-08T14:50:14;26.17;;;15.63;;
5869;SDS011;2961;47.702;9.410;2024-03-08T14:52:42;23.50;;;13.90;;
5869;SDS011;2961;47.702;9.410;2024-03-08T14:55:08;24.93;;;14.97;;
5869;SDS011;2961;47.702;9.410;2024-03-08T14:57:39;28.70;;;15.47;;